createdAt,value
2022-12-14T00:00:41.640Z,2.30
2022-12-14T00:03:15.368Z,2.30
2022-12-14T00:05:48.112Z,2.30
2022-12-14T00:08:20.636Z,2.20
2022-12-14T00:10:53.085Z,2.30
2022-12-14T00:13:25.655Z,2.20
2022-12-14T00:15:58.112Z,2.20
2022-12-14T00:18:30.688Z,2.20
2022-12-14T00:21:05.085Z,2.20
2022-12-14T00:23:39.300Z,2.20
2022-12-14T00:26:35.202Z,2.20
2022-12-14T00:29:07.725Z,2.20
2022-12-14T00:31:40.279Z,2.10
2022-12-14T00:34:12.820Z,2.10
2022-12-14T00:36:45.333Z,2.10
2022-12-14T00:39:17.852Z,2.10
2022-12-14T00:41:50.297Z,2.10
2022-12-14T00:44:22.836Z,2.10
2022-12-14T00:46:55.361Z,2.00
2022-12-14T00:49:28.163Z,2.10
2022-12-14T00:52:00.637Z,2.00
2022-12-14T00:54:33.246Z,2.00
2022-12-14T00:57:05.655Z,2.00
2022-12-14T00:59:38.128Z,2.00
2022-12-14T01:02:10.555Z,2.00
2022-12-14T01:04:43.081Z,4.40
2022-12-14T01:07:15.635Z,2.00
2022-12-14T01:09:48.116Z,2.00
2022-12-14T01:12:20.450Z,2.00
2022-12-14T01:14:53.074Z,1.90
2022-12-14T01:17:25.544Z,1.90
2022-12-14T01:19:58.129Z,2.00
2022-12-14T01:22:30.628Z,2.00
2022-12-14T01:25:03.607Z,2.00
2022-12-14T01:27:36.196Z,2.00
2022-12-14T01:30:09.081Z,2.00
2022-12-14T01:32:41.838Z,2.00
2022-12-14T01:35:14.752Z,1.90
2022-12-14T01:37:48.935Z,2.00
2022-12-14T01:40:21.782Z,2.00
2022-12-14T01:42:54.080Z,2.00
2022-12-14T01:45:26.532Z,4.20
2022-12-14T01:48:00.265Z,2.00
2022-12-14T01:50:36.042Z,2.00
2022-12-14T01:53:12.212Z,2.00
2022-12-14T01:55:48.780Z,2.00
2022-12-14T01:58:23.234Z,2.00
2022-12-14T02:00:57.602Z,2.00
2022-12-14T02:03:32.637Z,2.00
2022-12-14T02:06:09.361Z,2.00
2022-12-14T02:08:43.660Z,1.90
2022-12-14T02:11:20.944Z,2.00
2022-12-14T02:13:53.315Z,1.90
2022-12-14T02:16:26.060Z,2.00
2022-12-14T02:18:58.653Z,2.00
2022-12-14T02:21:59.346Z,2.00
2022-12-14T02:24:47.477Z,2.00
2022-12-14T02:27:21.390Z,2.00
2022-12-14T02:30:01.046Z,2.00
2022-12-14T02:32:42.996Z,2.00
2022-12-14T02:35:15.667Z,2.00
2022-12-14T02:37:49.476Z,2.10
2022-12-14T02:40:26.344Z,2.00
2022-12-14T02:43:13.954Z,2.00
2022-12-14T02:45:54.018Z,2.10
2022-12-14T02:48:31.082Z,2.10
2022-12-14T02:51:19.722Z,2.10
2022-12-14T02:53:57.858Z,2.10
2022-12-14T02:56:34.106Z,2.10
2022-12-14T02:59:08.429Z,2.10
2022-12-14T03:01:42.013Z,2.10
2022-12-14T03:04:20.838Z,2.10
2022-12-14T03:06:58.295Z,2.10
2022-12-14T03:09:34.817Z,2.10
2022-12-14T03:12:09.641Z,2.00
2022-12-14T03:14:45.778Z,2.00
2022-12-14T03:17:21.226Z,2.00
2022-12-14T03:19:56.066Z,2.00
2022-12-14T03:22:30.837Z,2.00
2022-12-14T03:25:09.118Z,2.00
2022-12-14T03:27:45.041Z,2.00
2022-12-14T03:30:43.841Z,2.00
2022-12-14T03:33:15.724Z,2.00
2022-12-14T03:35:53.720Z,2.00
2022-12-14T03:38:34.719Z,2.00
2022-12-14T03:41:17.145Z,2.00
2022-12-14T03:43:56.277Z,1.90
2022-12-14T03:46:33.159Z,2.00
2022-12-14T03:49:12.889Z,2.00
2022-12-14T03:51:45.678Z,1.90
2022-12-14T03:54:18.408Z,1.90
2022-12-14T03:56:55.826Z,1.90
2022-12-14T03:59:35.365Z,1.90
2022-12-14T04:02:12.483Z,2.00
2022-12-14T04:04:48.275Z,1.90
2022-12-14T04:07:26.207Z,2.30
2022-12-14T04:09:58.900Z,1.90
2022-12-14T04:12:51.481Z,1.90
2022-12-14T04:15:40.864Z,1.90
2022-12-14T04:18:32.410Z,1.90
2022-12-14T04:21:11.750Z,2.00
2022-12-14T04:24:02.684Z,1.90
2022-12-14T04:26:37.823Z,2.00
2022-12-14T04:29:28.989Z,2.00
2022-12-14T04:32:06.433Z,2.00
2022-12-14T04:34:41.835Z,2.00
2022-12-14T04:37:16.137Z,2.00
2022-12-14T04:39:51.417Z,2.10
2022-12-14T04:42:26.629Z,2.00
2022-12-14T04:45:02.990Z,2.00
2022-12-14T04:47:39.189Z,2.10
2022-12-14T04:50:16.040Z,2.10
2022-12-14T04:52:51.485Z,2.10
2022-12-14T04:55:32.029Z,2.10
2022-12-14T04:58:07.934Z,2.10
2022-12-14T05:00:49.439Z,2.10
2022-12-14T05:03:29.041Z,2.10
2022-12-14T05:06:12.311Z,2.10
2022-12-14T05:08:44.994Z,2.20
2022-12-14T05:11:50.200Z,2.10
2022-12-14T05:14:13.256Z,2.10
2022-12-14T05:16:48.863Z,2.10
2022-12-14T05:19:27.156Z,2.00
2022-12-14T05:22:05.596Z,2.00
2022-12-14T05:24:38.211Z,2.00
2022-12-14T05:27:10.715Z,2.00
2022-12-14T05:29:43.249Z,2.00
2022-12-14T05:32:15.827Z,4.00
2022-12-14T05:34:48.321Z,2.10
2022-12-14T05:37:23.460Z,2.10
2022-12-14T05:39:56.067Z,2.10
2022-12-14T05:42:28.483Z,2.10
2022-12-14T05:45:01.048Z,2.10
2022-12-14T05:47:33.652Z,2.10
2022-12-14T05:50:06.988Z,2.20
2022-12-14T05:52:39.519Z,2.10
2022-12-14T05:55:11.948Z,2.20
2022-12-14T05:57:44.559Z,2.10
2022-12-14T06:00:17.213Z,2.20
2022-12-14T06:02:49.835Z,2.20
2022-12-14T06:05:22.307Z,2.20
2022-12-14T06:07:54.774Z,2.20
2022-12-14T06:10:27.316Z,2.20
2022-12-14T06:12:59.766Z,2.20
2022-12-14T06:15:34.051Z,2.30
2022-12-14T06:18:06.959Z,2.30
2022-12-14T06:20:39.399Z,2.30
2022-12-14T06:23:11.812Z,2.30
2022-12-14T06:25:44.135Z,2.30
2022-12-14T06:28:16.902Z,2.30
2022-12-14T06:30:49.410Z,2.30
2022-12-14T06:33:21.982Z,2.30
2022-12-14T06:35:54.484Z,2.40
2022-12-14T06:38:27.155Z,2.30
2022-12-14T06:40:59.560Z,2.30
2022-12-14T06:43:32.094Z,2.40
2022-12-14T06:46:15.685Z,2.40
2022-12-14T06:48:56.446Z,2.30
2022-12-14T06:51:28.866Z,2.40
2022-12-14T06:54:01.366Z,2.40
2022-12-14T06:56:37.281Z,2.40
2022-12-14T06:59:10.076Z,2.40
2022-12-14T07:01:42.907Z,2.40
2022-12-14T07:04:17.358Z,2.50
2022-12-14T07:06:50.221Z,2.40
2022-12-14T07:09:22.806Z,2.40
2022-12-14T07:11:55.237Z,2.40
2022-12-14T07:14:30.412Z,2.50
2022-12-14T07:17:02.785Z,2.50
2022-12-14T07:19:35.368Z,2.50
2022-12-14T07:22:08.314Z,2.50
2022-12-14T07:24:42.073Z,2.50
2022-12-14T07:27:14.633Z,2.50
2022-12-14T07:29:47.195Z,2.50
2022-12-14T07:32:19.605Z,2.50
2022-12-14T07:34:52.182Z,2.50
2022-12-14T07:37:24.717Z,2.50
2022-12-14T07:39:57.210Z,2.50
2022-12-14T07:42:29.756Z,2.50
2022-12-14T07:45:06.087Z,2.50
2022-12-14T07:47:38.639Z,2.60
2022-12-14T07:50:11.280Z,2.50
2022-12-14T07:52:43.676Z,2.60
2022-12-14T07:55:16.712Z,2.60
2022-12-14T07:57:50.202Z,2.60
2022-12-14T08:00:22.852Z,2.60
2022-12-14T08:02:56.542Z,2.70
2022-12-14T08:05:29.234Z,2.60
2022-12-14T08:08:01.698Z,2.60
2022-12-14T08:10:40.004Z,2.70
2022-12-14T08:13:12.948Z,2.70
2022-12-14T08:15:45.584Z,2.70
2022-12-14T08:18:18.005Z,2.80
2022-12-14T08:20:53.270Z,2.80
2022-12-14T08:23:26.114Z,2.80
2022-12-14T08:25:59.911Z,2.70
2022-12-14T08:28:32.830Z,2.70
2022-12-14T08:31:07.709Z,2.80
2022-12-14T08:33:40.795Z,2.80
2022-12-14T08:36:15.055Z,3.20
2022-12-14T08:38:53.170Z,2.70
2022-12-14T08:41:26.530Z,2.80
2022-12-14T08:44:00.155Z,2.80
2022-12-14T08:46:33.818Z,2.80
2022-12-14T08:49:06.327Z,2.30
2022-12-14T08:51:38.976Z,2.80
2022-12-14T08:54:11.700Z,2.80
2022-12-14T08:56:44.265Z,2.80
2022-12-14T08:59:37.081Z,2.80
2022-12-14T09:02:09.927Z,2.80
2022-12-14T09:04:44.178Z,2.80
2022-12-14T09:07:17.373Z,2.90
2022-12-14T09:09:49.859Z,2.90
2022-12-14T09:12:22.699Z,2.90
2022-12-14T09:14:57.510Z,2.90
2022-12-14T09:17:30.623Z,2.90
2022-12-14T09:20:03.640Z,2.90
2022-12-14T09:22:37.375Z,3.00
2022-12-14T09:25:10.596Z,3.00
2022-12-14T09:27:43.080Z,3.00
2022-12-14T09:30:15.574Z,3.00
2022-12-14T09:32:50.723Z,3.00
2022-12-14T09:35:23.624Z,3.00
2022-12-14T09:37:56.153Z,3.00
2022-12-14T09:40:29.936Z,3.00
2022-12-14T09:43:04.995Z,3.00
2022-12-14T09:45:44.940Z,3.00
2022-12-14T09:48:20.617Z,3.00
2022-12-14T09:50:53.702Z,3.00
2022-12-14T09:53:26.774Z,3.00
2022-12-14T09:55:59.497Z,3.10
2022-12-14T09:58:33.107Z,3.10
2022-12-14T10:01:17.663Z,3.00
2022-12-14T10:04:07.191Z,3.10
2022-12-14T10:06:41.447Z,3.20
2022-12-14T10:09:15.588Z,3.20
2022-12-14T10:11:48.380Z,3.20
2022-12-14T10:14:30.470Z,3.20
2022-12-14T10:17:04.418Z,3.30
2022-12-14T10:19:44.516Z,3.20
2022-12-14T10:22:19.041Z,3.30
2022-12-14T10:24:57.525Z,3.30
2022-12-14T10:27:47.649Z,3.30
2022-12-14T10:30:24.007Z,3.40
2022-12-14T10:33:11.882Z,3.40
2022-12-14T10:36:00.271Z,3.40
2022-12-14T10:38:33.680Z,3.50
2022-12-14T10:41:14.342Z,3.50
2022-12-14T10:43:50.529Z,3.50
2022-12-14T10:46:24.430Z,3.60
2022-12-14T10:49:12.216Z,3.60
2022-12-14T10:51:48.189Z,3.70
2022-12-14T10:54:37.639Z,3.70
2022-12-14T10:57:10.318Z,3.80
2022-12-14T11:00:03.032Z,3.80
2022-12-14T11:02:40.024Z,3.80
2022-12-14T11:05:23.717Z,3.80
2022-12-14T11:07:56.363Z,3.80
2022-12-14T11:10:30.252Z,3.90
2022-12-14T11:13:18.318Z,3.90
2022-12-14T11:15:52.821Z,3.90
2022-12-14T11:18:31.755Z,3.90
2022-12-14T11:21:06.337Z,3.90
2022-12-14T11:23:41.824Z,3.90
2022-12-14T11:26:25.915Z,3.90
2022-12-14T11:28:59.577Z,3.80
2022-12-14T11:31:38.060Z,3.80
2022-12-14T11:34:22.286Z,3.90
2022-12-14T11:36:55.138Z,3.90
2022-12-14T11:39:28.672Z,4.00
2022-12-14T11:42:02.600Z,4.00
2022-12-14T11:44:36.890Z,4.10
2022-12-14T11:47:13.640Z,4.10
2022-12-14T11:49:51.101Z,4.20
2022-12-14T11:52:26.210Z,4.20
2022-12-14T11:54:59.899Z,4.30
2022-12-14T11:57:34.583Z,4.30
2022-12-14T12:00:22.584Z,4.30
2022-12-14T12:02:55.550Z,4.40
2022-12-14T12:05:29.816Z,4.40
2022-12-14T12:08:03.048Z,4.40
2022-12-14T12:10:51.816Z,4.40
2022-12-14T12:13:26.816Z,4.40
2022-12-14T12:16:05.466Z,4.40
2022-12-14T12:18:46.683Z,4.40
2022-12-14T12:21:23.236Z,4.30
2022-12-14T12:23:56.063Z,4.40
2022-12-14T12:26:35.177Z,4.40
2022-12-14T12:29:13.938Z,4.40
2022-12-14T12:32:02.205Z,4.40
2022-12-14T12:34:45.085Z,4.30
2022-12-14T12:37:27.716Z,4.20
2022-12-14T12:40:03.947Z,4.20
2022-12-14T12:42:41.844Z,4.20
2022-12-14T12:45:21.570Z,4.30
2022-12-14T12:47:56.456Z,4.30
2022-12-14T12:50:31.370Z,4.40
2022-12-14T12:53:06.171Z,4.40
2022-12-14T12:55:42.479Z,4.40
2022-12-14T12:58:21.575Z,4.50
2022-12-14T13:00:55.839Z,4.50
2022-12-14T13:03:32.737Z,4.50
2022-12-14T13:06:16.486Z,4.50
2022-12-14T13:08:51.912Z,4.50
2022-12-14T13:11:28.176Z,4.50
2022-12-14T13:14:03.864Z,4.50
2022-12-14T13:16:38.502Z,4.50
2022-12-14T13:19:50.243Z,4.50
2022-12-14T13:22:14.873Z,4.50
2022-12-14T13:24:48.430Z,4.50
2022-12-14T13:27:35.929Z,4.50
2022-12-14T13:30:18.312Z,4.50
2022-12-14T13:32:54.413Z,4.30
2022-12-14T13:35:42.189Z,4.30
2022-12-14T13:38:16.422Z,4.20
2022-12-14T13:40:58.295Z,4.30
2022-12-14T13:43:46.125Z,4.20
2022-12-14T13:46:22.200Z,4.20
2022-12-14T13:48:57.283Z,4.30
2022-12-14T13:51:32.133Z,4.20
2022-12-14T13:54:06.821Z,4.20
2022-12-14T13:56:39.930Z,4.30
2022-12-14T13:59:28.468Z,4.20
2022-12-14T14:02:02.568Z,4.20
2022-12-14T14:04:36.817Z,4.10
2022-12-14T14:07:23.948Z,4.10
2022-12-14T14:09:57.297Z,4.10
2022-12-14T14:12:33.444Z,4.10
2022-12-14T14:15:09.629Z,4.10
2022-12-14T14:17:45.981Z,4.20
2022-12-14T14:20:34.391Z,4.10
2022-12-14T14:23:14.331Z,4.20
2022-12-14T14:25:48.689Z,4.20
2022-12-14T14:28:23.415Z,4.20
2022-12-14T14:30:58.042Z,4.20
2022-12-14T14:33:47.780Z,4.20
2022-12-14T14:36:33.521Z,4.10
2022-12-14T14:39:24.406Z,4.10
2022-12-14T14:42:02.126Z,4.10
2022-12-14T14:44:35.068Z,4.10
2022-12-14T14:47:19.882Z,4.20
2022-12-14T14:49:55.157Z,4.10
2022-12-14T14:52:42.825Z,4.10
2022-12-14T14:58:26.413Z,4.10
2022-12-14T15:01:00.547Z,4.10
2022-12-14T15:03:36.683Z,4.10
2022-12-14T15:06:12.991Z,4.10
2022-12-14T15:08:47.635Z,4.10
2022-12-14T15:11:21.847Z,4.10
2022-12-14T15:13:58.197Z,4.10
2022-12-14T15:16:32.924Z,4.00
2022-12-14T15:19:20.890Z,4.00
2022-12-14T15:21:54.959Z,4.00
2022-12-14T15:24:27.560Z,4.00
2022-12-14T15:27:00.687Z,3.90
2022-12-14T15:29:33.212Z,3.90
2022-12-14T15:32:06.074Z,3.90
2022-12-14T15:34:39.127Z,4.00
2022-12-14T15:37:23.983Z,3.90
2022-12-14T15:40:01.149Z,3.90
2022-12-14T15:42:33.699Z,3.90
2022-12-14T15:45:13.525Z,3.90
2022-12-14T15:47:49.364Z,3.90
2022-12-14T15:50:23.989Z,3.90
2022-12-14T15:53:00.466Z,3.90
2022-12-14T15:55:35.693Z,3.90
2022-12-14T15:58:15.984Z,3.90
2022-12-14T16:00:50.224Z,3.90
2022-12-14T16:03:29.319Z,3.90
2022-12-14T16:06:03.598Z,3.90
2022-12-14T16:08:37.354Z,3.90
2022-12-14T16:11:17.209Z,3.80
2022-12-14T16:13:50.285Z,3.80
2022-12-14T16:16:22.941Z,3.80
2022-12-14T16:19:13.878Z,3.80
2022-12-14T16:21:49.882Z,3.80
2022-12-14T16:24:24.437Z,3.80
2022-12-14T16:26:58.418Z,3.80
2022-12-14T16:29:32.748Z,3.80
2022-12-14T16:32:07.174Z,3.80
2022-12-14T16:34:41.597Z,3.80
2022-12-14T16:37:32.701Z,3.80
2022-12-14T16:40:10.602Z,3.90
2022-12-14T16:42:46.375Z,3.90
2022-12-14T16:45:34.438Z,3.90
2022-12-14T16:48:09.244Z,3.90
2022-12-14T16:50:57.003Z,3.90
2022-12-14T16:53:31.082Z,3.90
2022-12-14T16:56:07.358Z,3.90
2022-12-14T16:58:41.404Z,3.90
2022-12-14T17:01:14.903Z,3.90
2022-12-14T17:03:52.431Z,3.90
2022-12-14T17:06:28.395Z,3.80
2022-12-14T17:09:00.790Z,3.80
2022-12-14T17:11:33.355Z,3.90
2022-12-14T17:14:05.713Z,3.80
2022-12-14T17:16:38.801Z,3.80
2022-12-14T17:19:16.524Z,3.80
2022-12-14T17:21:50.595Z,3.80
2022-12-14T17:24:23.727Z,3.80
2022-12-14T17:26:56.343Z,3.80
2022-12-14T17:29:30.812Z,3.80
2022-12-14T17:32:04.606Z,3.80
2022-12-14T17:34:37.250Z,3.80
2022-12-14T17:37:18.949Z,3.80
2022-12-14T17:39:51.479Z,3.80
2022-12-14T17:42:24.129Z,3.80
2022-12-14T17:44:57.435Z,3.80
2022-12-14T17:47:30.068Z,3.80
2022-12-14T17:50:02.541Z,3.80
2022-12-14T17:52:35.204Z,3.90
2022-12-14T17:55:18.044Z,3.90
2022-12-14T17:57:50.661Z,3.80
2022-12-14T18:00:39.692Z,3.80
2022-12-14T18:03:13.431Z,3.80
2022-12-14T18:05:48.918Z,3.80
2022-12-14T18:08:23.105Z,3.80
2022-12-14T18:11:10.240Z,3.80
2022-12-14T18:13:47.613Z,3.80
2022-12-14T18:16:23.962Z,3.80
2022-12-14T18:18:58.530Z,3.80
2022-12-14T18:21:31.157Z,3.80
2022-12-14T18:24:09.363Z,3.80
2022-12-14T18:26:44.433Z,3.80
2022-12-14T18:29:20.456Z,3.80
2022-12-14T18:31:53.324Z,3.80
2022-12-14T18:34:25.938Z,3.80
2022-12-14T18:36:58.395Z,3.80
2022-12-14T18:39:31.118Z,3.80
2022-12-14T18:42:03.719Z,3.90
2022-12-14T18:44:36.315Z,3.90
2022-12-14T18:47:39.562Z,3.80
2022-12-14T18:50:01.400Z,3.90
2022-12-14T18:52:33.816Z,3.80
2022-12-14T18:55:07.894Z,3.90
2022-12-14T18:57:40.315Z,3.80
2022-12-14T19:00:13.503Z,4.30
2022-12-14T19:02:47.232Z,3.80
2022-12-14T19:05:26.048Z,3.80
2022-12-14T19:08:00.401Z,3.80
2022-12-14T19:10:33.103Z,3.80
2022-12-14T19:13:05.657Z,3.80
2022-12-14T19:15:38.376Z,3.70
2022-12-14T19:18:11.189Z,3.80
2022-12-14T19:20:43.800Z,3.70
2022-12-14T19:23:19.904Z,3.80
2022-12-14T19:25:52.554Z,3.70
2022-12-14T19:28:32.351Z,3.80
2022-12-14T19:31:06.588Z,3.70
2022-12-14T19:33:39.477Z,3.70
2022-12-14T19:36:12.190Z,3.70
2022-12-14T19:38:49.549Z,3.70
2022-12-14T19:41:23.862Z,3.80
2022-12-14T19:43:57.245Z,3.70
2022-12-14T19:46:29.924Z,3.80
2022-12-14T19:49:02.691Z,3.80
2022-12-14T19:51:35.337Z,3.70
2022-12-14T19:54:08.498Z,3.80
2022-12-14T19:56:41.148Z,3.70
2022-12-14T19:59:13.530Z,3.80
2022-12-14T20:01:48.141Z,3.80
2022-12-14T20:04:21.255Z,3.80
2022-12-14T20:06:53.858Z,3.80
2022-12-14T20:09:26.447Z,3.70
2022-12-14T20:11:59.104Z,3.70
2022-12-14T20:14:31.618Z,3.80
2022-12-14T20:17:04.211Z,3.70
2022-12-14T20:19:37.931Z,3.80
2022-12-14T20:22:10.545Z,3.80
2022-12-14T20:24:47.293Z,3.70
2022-12-14T20:27:20.177Z,3.80
2022-12-14T20:29:52.659Z,3.70
2022-12-14T20:32:25.295Z,3.80
2022-12-14T20:34:57.880Z,3.80
2022-12-14T20:37:30.664Z,3.80
2022-12-14T20:40:03.428Z,3.80
2022-12-14T20:42:36.255Z,3.80
2022-12-14T20:45:09.092Z,3.80
2022-12-14T20:47:41.648Z,3.80
2022-12-14T20:50:14.151Z,3.80
2022-12-14T20:52:46.993Z,3.80
2022-12-14T20:55:21.777Z,3.80
2022-12-14T20:57:54.370Z,3.80
2022-12-14T21:00:27.239Z,3.80
2022-12-14T21:03:00.206Z,3.80
2022-12-14T21:05:32.787Z,3.80
2022-12-14T21:08:05.594Z,3.80
2022-12-14T21:10:38.134Z,3.80
2022-12-14T21:13:11.096Z,3.90
2022-12-14T21:15:43.706Z,3.90
2022-12-14T21:18:16.193Z,3.90
2022-12-14T21:20:49.321Z,3.90
2022-12-14T21:23:22.100Z,3.90
2022-12-14T21:25:54.483Z,3.90
2022-12-14T21:28:31.925Z,3.90
2022-12-14T21:31:07.368Z,3.90
2022-12-14T21:33:40.803Z,3.90
2022-12-14T21:36:15.632Z,3.90
2022-12-14T21:38:48.221Z,3.90
2022-12-14T21:41:36.947Z,3.90
2022-12-14T21:44:09.759Z,3.90
2022-12-14T21:46:42.414Z,3.90
2022-12-14T21:49:15.023Z,3.90
2022-12-14T21:51:47.804Z,3.90
2022-12-14T21:54:22.744Z,3.90
2022-12-14T21:57:10.560Z,3.90
2022-12-14T21:59:47.117Z,3.90
2022-12-14T22:02:22.162Z,3.90
2022-12-14T22:04:56.407Z,4.00
2022-12-14T22:07:31.860Z,4.00
2022-12-14T22:10:04.616Z,4.00
2022-12-14T22:12:37.062Z,4.00
2022-12-14T22:15:10.194Z,4.00
2022-12-14T22:17:42.648Z,4.00
2022-12-14T22:20:15.091Z,4.00
2022-12-14T22:22:47.552Z,4.00
2022-12-14T22:25:20.135Z,4.00
2022-12-14T22:27:52.630Z,4.00
2022-12-14T22:30:31.675Z,4.00
2022-12-14T22:33:08.118Z,4.00
2022-12-14T22:35:41.095Z,4.10
2022-12-14T22:38:13.580Z,4.10
2022-12-14T22:40:46.255Z,4.10
2022-12-14T22:43:21.931Z,4.10
2022-12-14T22:46:00.393Z,4.10
2022-12-14T22:48:33.692Z,4.10
2022-12-14T22:51:10.678Z,4.10
2022-12-14T22:53:43.469Z,4.10
2022-12-14T22:56:38.120Z,4.10
2022-12-14T22:59:15.155Z,4.20
2022-12-14T23:01:50.153Z,4.20
2022-12-14T23:04:23.282Z,4.20
2022-12-14T23:06:55.905Z,4.20
2022-12-14T23:09:44.480Z,4.20
2022-12-14T23:12:32.690Z,4.10
2022-12-14T23:15:21.070Z,4.10
2022-12-14T23:18:11.924Z,4.10
2022-12-14T23:21:00.714Z,4.10
2022-12-14T23:23:49.253Z,4.10
2022-12-14T23:26:36.864Z,4.20
2022-12-14T23:29:25.297Z,4.10
2022-12-14T23:32:13.373Z,4.20
2022-12-14T23:35:01.855Z,4.20
2022-12-14T23:37:50.099Z,4.10
2022-12-14T23:40:38.507Z,4.20
2022-12-14T23:43:28.341Z,4.20
2022-12-14T23:46:17.251Z,4.20
2022-12-14T23:49:07.181Z,4.20
2022-12-14T23:51:59.414Z,4.20
2022-12-14T23:54:48.950Z,4.10
2022-12-14T23:57:37.449Z,4.20
